Palm Desert, CA (92211)

4:12 PM PDT on May 24, 2015 (GMT -0700)
Palace Drive | Change Station
CLOSE
Current Station
Personal Weather Station
Location: Palm Desert, CA
Elevation: 144 ft
Nearby Weather Stations

Elev 144 ft 33.76 °N, 116.32 °W | Updated 1 minute ago

Clear
Clear
89.6 °F
Feels Like 87 °F
N
-
Wind Variable Wind from North

Today
High -- | Low -- °F
--% Chance of Precip.
Yesterday
High -- | Low -- °F
Precip. -- in
5:39 AM 7:45 PM
Waxing Crescent, 43% visible
Pressure 29.80 in
Visibility 10.0 miles
Clouds Scattered Clouds 10000 ft
Heat Index 87 °F
Dew Point 55 °F
Humidity 30%
Rainfall -999.00 in
Snow Depth Not available.
UV 5 out of 12
Pollen 5.70 out of 12
Air Quality Not available.
Flu Activity Sporadic
METAR KPSP 242253Z 32019G25KT 10SM SCT100 29/09 A2980 RMK AO2 SLP089 T02890089

More Conditions Fewer Conditions

Pressure 29.80 in
Visibility 10.0 miles
Clouds Scattered Clouds 10000 ft
Heat Index 87 °F
Dew Point 55 °F
Humidity 30%
Rainfall -999.00 in
Snow Depth Not available.
UV 5 out of 12
Pollen 5.70 out of 12
Air Quality Not available.
Flu Activity Sporadic
METAR KPSP 242253Z 32019G25KT 10SM SCT100 29/09 A2980 RMK AO2 SLP089 T02890089

More Conditions Fewer Conditions

10-Day Weather Forecast

Almanac

Astronomy

May. 24, 2015 Rise Set
Actual Time 5:39 AM PDT 7:45 PM PDT
Civil Twilight 5:10 AM PDT 8:13 PM PDT
Nautical Twilight 4:36 AM PDT 8:48 PM PDT
Astronomical Twilight 3:59 AM PDT 9:25 PM PDT
Moon 11:46 AM PDT 12:24 AM PDT
Length of Visible Light 15h 02m
Length of Day
14h 06m
Tomorrow will be 1m 9s longer.
Waxing Crescent, 43% of the Moon is Illuminated
Today
Waxing Crescent
May 25
First Quarter
Jun 2
Full
Jun 9
Last Quarter
Jun 16
New

Today's Extremes

State Highs State Lows

Community

WunderPhotos

Upload Photos

1,823,892 photos uploaded!

Nearby

Air Quality

  Air Quality AQ Index Pollutant
Yesterday Good
OZONE
Yesterday Good
PM10
Monday Moderate
OZONE
Monday Good
PM10
Monday Good
CO
Monday Good
NO2

Snow Depth

Station Depth Elevation
Virginia Lakes Ridge 2 in 9200 ft
Leavitt Lake 39 in 9400 ft
Leavitt Meadows 0 in 7200 ft
Summit Meadow 1 in 9122 ft
Monitor Pass 0 in 8350 ft

Earthquake Activity

City Distance Mag. Time & Date
Salton City, California 38 miles 2.6 5:28 PM PDT
2015-05-23
Minimum magnitude displayed is 2.5.

Coastal Water Temperatures

Place Temperature
No Stations Reporting

Nearby Weather Stations